Old Crow Airport
CYOC : now visible

Airfield :











YOU CAN JOIN US ON...

 
LOGIN :

Register | Disclaimer

   EN    FR    IT 

 









Legend :    VFR   Marginal VFR   IFR   Intensive IFR   Very Intensive IFR
Visi :
Ceiling :
>= 8 km
>= 3000ft
5 to 8 km
1000 to 3000 ft
1500m to 5 km
500 to 1000 ft
800 to 1500m
200 to 500 ft
< 800m
< 200 ft
Symbols :   Thunderstorms  Fog  Heavy snow  Heavy precipitations  Wind > 20 kt






- Airport Elevation : 824 ft
- IATA code : YOC


CYOC - Old Crow

CURRENT METAR :
  • 151800Z 00000KT 1 1/2SM -SG BR BKN004 OVC012 M26/M30 A2999 RMK FG5ST2SC1 SLP195

EXPIRED METARs :
  • 151734Z 00000KT 1 1/2SM -SG BR BKN004 OVC012 M26/M29 A2998 RMK FG4ST2ST2 SLP192
  • 151700Z 22002KT 1SM -SG BR BKN004 OVC012 M26/M29 A2998 RMK FG5ST2ST1 SLP193
  • 151631Z VRB02KT 1SM -SG BR OVC004 M26/M29 A2998 RMK FG5ST3 SLP192
  • 151600Z 24002KT 3/4SM -SG BR OVC004 M26/M29 A2998 RMK FG6ST2 SLP193

TAF TAF CYOC
Valid from the 15 at 18:00 until the 16 at 02:00 UTC


151738Z 1518/1602 VRB03KT 1SM -SN -SG BR BKN004 OVC012
TEMPO 1518/1521 P6SM NSW SCT004 OVC012
FM152100 VRB03KT P6SM OVC012
TEMPO 1521/1602 3SM -SN -SG BR RMK NXT FCST BY 160000Z



MET'MAP, your aeronautical weather chart ! - Copyright ORBIFLY December 2007 - Disclaimer

ORBIFLY MET'MAP TEAM :

Programming & Development : Alexandra Zaïnal
Concept & original design : Baudouin d'Aumeries
Assistance for programming : Marc-Olivier Méhu
Technical & hardware support : Manuel Goepfert

Contact : metmap@orbifly.com




SOURCES & CREDITS :

   NOAA       Earth
Advisory